createdAt,value
2018-12-19T05:40:33.847Z,199.25
2018-12-19T05:51:06.605Z,193.57
2018-12-19T06:01:09.228Z,193.07
2018-12-19T06:11:11.839Z,208.50
2018-12-19T06:21:14.467Z,207.97
2018-12-19T06:31:17.138Z,195.27
2018-12-19T06:41:19.745Z,184.37
2018-12-19T06:51:22.349Z,190.33
2018-12-19T07:01:24.942Z,191.37
2018-12-19T07:11:27.571Z,191.57
2018-12-19T07:21:31.204Z,197.30
2018-12-19T07:31:33.826Z,205.27
2018-12-19T07:41:36.435Z,189.20
2018-12-19T07:51:39.425Z,189.90
2018-12-19T08:01:42.041Z,196.17
2018-12-19T08:11:44.657Z,192.47
2018-12-19T08:21:47.271Z,173.53
2018-12-19T08:31:49.977Z,179.07
2018-12-19T08:41:52.891Z,159.43
2018-12-19T08:51:55.539Z,178.80
2018-12-19T09:01:58.198Z,173.53
2018-12-19T09:12:00.828Z,167.87
2018-12-19T09:22:03.615Z,160.23
2018-12-19T09:32:06.245Z,161.23
2018-12-19T09:42:08.871Z,163.33
2018-12-19T09:52:11.470Z,154.77
2018-12-19T10:02:14.192Z,159.07
2018-12-19T10:12:16.798Z,156.17
2018-12-19T10:22:21.496Z,158.67
2018-12-19T10:32:24.362Z,128.93
2018-12-19T10:42:27.141Z,108.97
2018-12-19T10:52:29.754Z,102.77
2018-12-19T11:02:32.372Z,90.53
2018-12-19T11:12:34.981Z,88.93
2018-12-19T11:22:37.593Z,76.77
2018-12-19T11:32:40.314Z,92.72
2018-12-19T11:42:43.149Z,77.40
2018-12-19T11:52:45.757Z,83.37
2018-12-19T12:02:48.376Z,82.73
2018-12-19T12:12:50.977Z,81.20
2018-12-19T12:22:53.615Z,73.70
2018-12-19T12:32:56.342Z,70.40
2018-12-19T12:42:58.959Z,66.40
2018-12-19T12:53:01.559Z,55.30
2018-12-19T13:03:04.176Z,62.60
2018-12-19T13:13:06.772Z,75.10
2018-12-19T13:23:09.386Z,85.63
2018-12-19T13:33:11.996Z,103.30
2018-12-19T13:43:14.618Z,109.70
2018-12-19T13:53:17.236Z,95.00
2018-12-19T14:03:19.975Z,98.63
2018-12-19T14:13:22.800Z,87.03
2018-12-19T14:23:25.409Z,88.37
2018-12-19T14:33:28.216Z,88.80
2018-12-19T14:43:30.825Z,92.17
2018-12-19T14:53:33.816Z,83.30
2018-12-19T15:03:36.416Z,84.87
2018-12-19T15:13:39.614Z,98.07
2018-12-19T15:23:42.221Z,99.40
2018-12-19T15:33:44.836Z,103.47
2018-12-19T15:43:47.591Z,102.77
2018-12-19T15:53:50.773Z,113.50
2018-12-19T16:03:53.676Z,106.33
2018-12-19T16:13:59.551Z,118.07
2018-12-19T16:34:58.607Z,117.90
2018-12-19T16:55:58.165Z,111.90
2018-12-19T17:06:00.774Z,104.33
2018-12-19T17:16:03.381Z,86.80
2018-12-19T17:37:02.494Z,85.70
2018-12-19T17:47:05.132Z,82.40
2018-12-19T18:08:04.530Z,82.20
2018-12-19T18:29:04.020Z,82.00
2018-12-19T18:50:03.590Z,98.33
2018-12-19T19:11:02.569Z,99.00
2018-12-19T19:21:05.189Z,98.37
2018-12-19T19:31:07.952Z,106.47
2018-12-19T19:52:06.923Z,93.10
2018-12-19T20:13:05.341Z,106.20
2018-12-19T20:23:08.042Z,109.23
2018-12-19T20:33:10.628Z,100.77
2018-12-19T20:54:09.844Z,103.93
2018-12-19T21:15:08.939Z,97.40
2018-12-19T21:36:07.740Z,86.50
2018-12-19T21:57:07.051Z,89.27
2018-12-19T22:07:09.821Z,93.67
2018-12-19T22:17:18.175Z,98.50
2018-12-19T22:38:16.705Z,96.57
2018-12-19T22:59:15.517Z,95.23
2018-12-19T23:09:18.136Z,94.80
2018-12-19T23:19:20.814Z,93.97
2018-12-19T23:40:19.895Z,101.87
2018-12-19T23:50:22.515Z,99.20
